createdAt,value
2019-04-03T00:00:23.908Z,98598.81
2019-04-03T00:02:57.098Z,98592.38
2019-04-03T00:05:30.404Z,98593.55
2019-04-03T00:08:06.090Z,98590.03
2019-04-03T00:10:38.579Z,98590.77
2019-04-03T00:13:11.913Z,98598.33
2019-04-03T00:15:45.329Z,98588.45
2019-04-03T00:18:18.637Z,98596.38
2019-04-03T00:20:52.161Z,98588.64
2019-04-03T00:23:25.714Z,98583.23
2019-04-03T00:25:58.726Z,98587.25
2019-04-03T00:28:32.466Z,98594.41
2019-04-03T00:31:06.203Z,98595.15
2019-04-03T00:33:39.490Z,98595.17
2019-04-03T00:36:12.511Z,98591.92
2019-04-03T00:38:46.651Z,98591.31
2019-04-03T00:41:20.133Z,98595.59
2019-04-03T00:43:54.425Z,98604.31
2019-04-03T00:46:28.089Z,98590.58
2019-04-03T00:49:01.420Z,98593.48
2019-04-03T00:51:33.683Z,98591.80
2019-04-03T00:54:06.819Z,98588.27
2019-04-03T00:56:40.142Z,98585.16
2019-04-03T00:59:13.751Z,98585.88
2019-04-03T01:01:47.111Z,98590.13
2019-04-03T01:04:20.780Z,98589.75
2019-04-03T01:06:54.070Z,98589.95
2019-04-03T01:09:29.034Z,98591.11
2019-04-03T01:12:02.629Z,98592.04
2019-04-03T01:14:35.261Z,98589.34
2019-04-03T01:17:07.972Z,98587.42
2019-04-03T01:19:41.384Z,98586.68
2019-04-03T01:22:14.995Z,98582.64
2019-04-03T01:24:48.360Z,98578.55
2019-04-03T01:27:21.913Z,98569.64
2019-04-03T01:29:54.862Z,98572.56
2019-04-03T01:32:28.035Z,98570.03
2019-04-03T01:35:01.973Z,98567.34
2019-04-03T01:37:35.071Z,98552.66
2019-04-03T01:40:08.871Z,98555.23
2019-04-03T01:42:41.848Z,98553.88
2019-04-03T01:45:14.367Z,98550.18
2019-04-03T01:47:47.914Z,98543.97
2019-04-03T01:50:20.809Z,98544.14
2019-04-03T01:52:54.640Z,98550.73
2019-04-03T01:55:28.117Z,98547.27
2019-04-03T01:58:01.814Z,98543.40
2019-04-03T02:00:38.144Z,98550.52
2019-04-03T02:03:11.570Z,98547.11
2019-04-03T02:05:44.655Z,98538.02
2019-04-03T02:08:16.982Z,98540.16
2019-04-03T02:10:50.701Z,98539.20
2019-04-03T02:13:23.344Z,98535.52
2019-04-03T02:15:56.407Z,98532.03
2019-04-03T02:18:28.998Z,98529.95
2019-04-03T02:21:02.778Z,98523.58
2019-04-03T02:23:35.759Z,98516.19
2019-04-03T02:26:08.948Z,98511.31
2019-04-03T02:28:41.948Z,98508.27
2019-04-03T02:31:18.283Z,98509.23
2019-04-03T02:33:50.108Z,98498.95
2019-04-03T02:36:22.712Z,98511.55
2019-04-03T02:38:56.227Z,98500.67
2019-04-03T02:41:30.481Z,98503.39
2019-04-03T02:44:04.231Z,98506.28
2019-04-03T02:46:36.860Z,98500.23
2019-04-03T02:49:11.049Z,98502.76
2019-04-03T02:51:45.642Z,98502.54
2019-04-03T02:54:28.128Z,98506.42
2019-04-03T02:57:00.595Z,98505.80
2019-04-03T02:59:34.012Z,98510.45
2019-04-03T03:02:06.571Z,98504.68
2019-04-03T03:04:39.673Z,98506.82
2019-04-03T03:07:12.661Z,98501.98
2019-04-03T03:09:47.500Z,98495.78
2019-04-03T03:12:20.516Z,98499.67
2019-04-03T03:14:54.543Z,98507.23
2019-04-03T03:17:27.759Z,98512.27
2019-04-03T03:20:06.929Z,98506.45
2019-04-03T03:22:40.603Z,98512.27
2019-04-03T03:25:14.007Z,98508.59
2019-04-03T03:27:46.977Z,98518.69
2019-04-03T03:30:37.501Z,98519.66
2019-04-03T03:33:19.563Z,98523.33
2019-04-03T03:35:39.497Z,98523.33
2019-04-03T03:38:07.072Z,98521.80
2019-04-03T03:40:41.042Z,98531.07
2019-04-03T03:43:15.803Z,98527.61
2019-04-03T03:45:52.290Z,98535.77
2019-04-03T03:48:26.475Z,98533.81
2019-04-03T03:51:02.067Z,98531.86
2019-04-03T03:53:35.569Z,98538.06
2019-04-03T03:56:08.618Z,98533.21
2019-04-03T03:58:44.777Z,98527.78
2019-04-03T04:01:17.909Z,98527.00
2019-04-03T04:03:51.155Z,98519.11
2019-04-03T04:06:27.949Z,98507.69
2019-04-03T04:09:00.273Z,98505.55
2019-04-03T04:11:33.704Z,98498.77
2019-04-03T04:14:06.809Z,98508.05
2019-04-03T04:16:41.499Z,98509.41
2019-04-03T04:19:15.683Z,98507.84
2019-04-03T04:21:48.709Z,98508.41
2019-04-03T04:24:21.595Z,98517.13
2019-04-03T04:26:54.800Z,98521.01
2019-04-03T04:29:30.015Z,98527.00
2019-04-03T04:32:03.369Z,98525.86
2019-04-03T04:34:37.208Z,98520.22
2019-04-03T04:37:10.053Z,98518.65
2019-04-03T04:39:43.474Z,98511.86
2019-04-03T04:42:16.870Z,98508.75
2019-04-03T04:44:50.300Z,98518.40
2019-04-03T04:47:23.475Z,98523.20
2019-04-03T04:49:56.379Z,98521.08
2019-04-03T04:52:29.540Z,98518.16
2019-04-03T04:55:03.001Z,98514.08
2019-04-03T04:57:36.840Z,98523.54
2019-04-03T05:00:10.160Z,98527.58
2019-04-03T05:02:43.059Z,98534.69
2019-04-03T05:05:16.127Z,98531.40
2019-04-03T05:07:49.674Z,98529.86
2019-04-03T05:10:23.024Z,98518.98
2019-04-03T05:12:57.118Z,98522.64
2019-04-03T05:15:30.565Z,98516.85
2019-04-03T05:18:03.659Z,98530.00
2019-04-03T05:20:36.587Z,98534.06
2019-04-03T05:23:10.026Z,98528.83
2019-04-03T05:25:43.722Z,98530.00
2019-04-03T05:28:17.159Z,98526.91
2019-04-03T05:30:50.118Z,98535.44
2019-04-03T05:33:23.110Z,98532.27
2019-04-03T05:35:57.144Z,98531.50
2019-04-03T05:38:30.563Z,98536.94
2019-04-03T05:41:03.923Z,98540.30
2019-04-03T05:43:36.987Z,98527.75
2019-04-03T05:46:10.330Z,98533.39
2019-04-03T05:48:43.746Z,98533.79
2019-04-03T05:51:17.221Z,98538.62
2019-04-03T05:53:50.251Z,98545.23
2019-04-03T05:56:23.788Z,98544.50
2019-04-03T05:59:00.474Z,98545.64
2019-04-03T06:01:31.612Z,98550.28
2019-04-03T06:04:04.243Z,98557.66
2019-04-03T06:06:38.413Z,98545.08
2019-04-03T06:09:11.786Z,98538.55
2019-04-03T06:11:45.201Z,98542.63
2019-04-03T06:14:19.806Z,98548.44
2019-04-03T06:16:56.120Z,98542.06
2019-04-03T06:19:29.432Z,98536.48
2019-04-03T06:22:02.776Z,98534.73
2019-04-03T06:24:36.276Z,98537.45
2019-04-03T06:27:10.518Z,98535.13
2019-04-03T06:29:44.075Z,98526.61
2019-04-03T06:32:17.695Z,98533.25
2019-04-03T06:34:51.075Z,98528.63
2019-04-03T06:37:24.423Z,98525.71
2019-04-03T06:39:57.941Z,98522.99
2019-04-03T06:42:31.021Z,98522.60
2019-04-03T06:45:04.442Z,98525.31
2019-04-03T06:47:37.986Z,98526.84
2019-04-03T06:50:12.552Z,98531.31
2019-04-03T06:52:46.426Z,98533.06
2019-04-03T06:55:19.417Z,98537.72
2019-04-03T06:57:51.608Z,98536.38
2019-04-03T07:00:24.605Z,98536.18
2019-04-03T07:02:58.305Z,98531.12
2019-04-03T07:05:31.547Z,98527.63
2019-04-03T07:08:05.933Z,98535.38
2019-04-03T07:10:40.350Z,98532.20
2019-04-03T07:13:15.207Z,98521.39
2019-04-03T07:15:48.544Z,98527.91
2019-04-03T07:18:22.691Z,98528.71
2019-04-03T07:20:55.344Z,98528.56
2019-04-03T07:23:29.933Z,98528.79
2019-04-03T07:26:04.376Z,98531.66
2019-04-03T07:28:38.920Z,98532.19
2019-04-03T07:31:12.271Z,98532.64
2019-04-03T07:33:45.221Z,98537.37
2019-04-03T07:36:19.033Z,98534.14
2019-04-03T07:38:52.274Z,98522.45
2019-04-03T07:41:25.710Z,98530.81
2019-04-03T07:43:59.334Z,98538.89
2019-04-03T07:46:33.234Z,98543.22
2019-04-03T07:49:06.778Z,98543.25
2019-04-03T07:51:41.586Z,98537.30
2019-04-03T07:54:16.245Z,98548.71
2019-04-03T07:56:49.853Z,98559.42
2019-04-03T07:59:23.148Z,98551.48
2019-04-03T08:01:55.751Z,98542.75
2019-04-03T08:04:29.464Z,98549.36
2019-04-03T08:07:02.033Z,98560.97
2019-04-03T08:09:34.862Z,98543.55
2019-04-03T08:12:10.022Z,98539.63
2019-04-03T08:14:43.409Z,98545.80
2019-04-03T08:17:18.576Z,98548.54
2019-04-03T08:19:53.742Z,98550.63
2019-04-03T08:22:25.881Z,98555.53
2019-04-03T08:24:59.420Z,98561.53
2019-04-03T08:27:31.936Z,98556.47
2019-04-03T08:30:07.463Z,98549.24
2019-04-03T08:32:41.716Z,98547.79
2019-04-03T08:35:21.719Z,98546.55
2019-04-03T08:37:50.255Z,98544.11
2019-04-03T08:40:24.647Z,98539.16
2019-04-03T08:43:00.679Z,98543.90
2019-04-03T08:45:33.562Z,98543.79
2019-04-03T08:48:07.136Z,98542.46
2019-04-03T08:50:40.619Z,98544.27
2019-04-03T08:53:14.211Z,98542.64
2019-04-03T08:55:48.121Z,98540.53
2019-04-03T08:58:22.117Z,98541.11
2019-04-03T09:00:55.648Z,98546.16
2019-04-03T09:03:28.853Z,98542.17
2019-04-03T09:06:02.024Z,98547.84
2019-04-03T09:08:35.335Z,98545.06
2019-04-03T09:11:08.244Z,98542.10
2019-04-03T09:13:41.681Z,98537.42
2019-04-03T09:16:14.665Z,98533.83
2019-04-03T09:18:48.800Z,98536.59
2019-04-03T09:21:22.839Z,98532.54
2019-04-03T09:23:58.131Z,98534.07
2019-04-03T09:26:34.522Z,98541.05
2019-04-03T09:29:05.888Z,98537.53
2019-04-03T09:31:39.044Z,98520.89
2019-04-03T09:34:12.235Z,98525.58
2019-04-03T09:36:45.665Z,98520.89
2019-04-03T09:39:18.538Z,98529.65
2019-04-03T09:41:51.175Z,98526.41
2019-04-03T09:44:25.721Z,98531.81
2019-04-03T09:47:02.899Z,98521.80
2019-04-03T09:49:38.085Z,98523.59
2019-04-03T09:52:10.736Z,98517.84
2019-04-03T09:54:44.056Z,98523.69
2019-04-03T09:57:17.759Z,98523.31
2019-04-03T09:59:50.965Z,98522.20
2019-04-03T10:02:24.531Z,98518.09
2019-04-03T10:04:58.760Z,98522.38
2019-04-03T10:07:33.632Z,98521.61
2019-04-03T10:10:07.696Z,98516.42
2019-04-03T10:12:43.026Z,98511.88
2019-04-03T10:15:18.731Z,98509.92
2019-04-03T10:17:52.131Z,98508.59
2019-04-03T10:20:25.282Z,98501.71
2019-04-03T10:22:58.511Z,98496.85
2019-04-03T10:25:31.180Z,98497.59
2019-04-03T10:28:04.371Z,98494.83
2019-04-03T10:30:37.787Z,98495.36
2019-04-03T10:33:12.078Z,98499.84
2019-04-03T10:35:47.344Z,98499.59
2019-04-03T10:38:20.706Z,98500.81
2019-04-03T10:40:56.225Z,98496.66
2019-04-03T10:43:29.639Z,98496.95
2019-04-03T10:46:03.040Z,98493.08
2019-04-03T10:48:36.529Z,98496.11
2019-04-03T10:51:10.185Z,98487.67
2019-04-03T10:53:44.174Z,98483.50
2019-04-03T10:56:17.674Z,98482.51
2019-04-03T10:58:51.689Z,98482.63
2019-04-03T11:01:26.096Z,98480.86
2019-04-03T11:03:59.761Z,98480.75
2019-04-03T11:06:32.381Z,98484.17
2019-04-03T11:09:08.729Z,98482.36
2019-04-03T11:11:43.601Z,98486.26
2019-04-03T11:14:17.255Z,98490.36
2019-04-03T11:16:50.434Z,98490.02
2019-04-03T11:19:23.440Z,98481.11
2019-04-03T11:21:57.152Z,98474.55
2019-04-03T11:24:30.363Z,98478.78
2019-04-03T11:27:03.709Z,98484.58
2019-04-03T11:29:37.641Z,98493.04
2019-04-03T11:32:11.933Z,98509.56
2019-04-03T11:34:48.935Z,98506.45
2019-04-03T11:37:20.794Z,98512.98
2019-04-03T11:40:02.422Z,98513.75
2019-04-03T11:42:29.900Z,98523.77
2019-04-03T11:45:04.700Z,98537.81
2019-04-03T11:47:39.229Z,98526.37
2019-04-03T11:50:13.751Z,98537.42
2019-04-03T11:52:46.579Z,98518.73
2019-04-03T11:55:19.911Z,98521.77
2019-04-03T11:57:52.892Z,98516.80
2019-04-03T12:00:30.289Z,98516.08
2019-04-03T12:03:03.794Z,98509.05
2019-04-03T12:05:37.193Z,98519.87
2019-04-03T12:08:12.536Z,98522.82
2019-04-03T12:10:47.243Z,98524.41
2019-04-03T12:13:22.847Z,98523.98
2019-04-03T12:15:58.718Z,98513.63
2019-04-03T12:18:34.160Z,98513.41
2019-04-03T12:21:09.617Z,98511.25
2019-04-03T12:23:42.680Z,98517.31
2019-04-03T12:26:15.620Z,98517.72
2019-04-03T12:28:50.214Z,98520.67
2019-04-03T12:31:24.247Z,98514.09
2019-04-03T12:34:03.880Z,98511.15
2019-04-03T12:36:33.614Z,98511.48
2019-04-03T12:39:13.388Z,98506.67
2019-04-03T12:41:47.165Z,98498.23
2019-04-03T12:44:21.487Z,98496.05
2019-04-03T12:46:54.677Z,98484.50
2019-04-03T12:49:28.013Z,98474.67
2019-04-03T12:52:03.643Z,98465.75
2019-04-03T12:54:36.767Z,98474.03
2019-04-03T12:57:10.127Z,98481.42
2019-04-03T12:59:46.410Z,98479.24
2019-04-03T13:02:19.071Z,98486.85
2019-04-03T13:04:53.893Z,98496.06
2019-04-03T20:08:04.567Z,98400.47
2019-04-03T20:10:37.854Z,98421.47
2019-04-03T20:13:10.492Z,98427.00
2019-04-03T20:15:43.975Z,98425.99
2019-04-03T20:18:17.106Z,98418.65
2019-04-03T20:20:50.539Z,98400.47
2019-04-03T20:23:24.189Z,98375.23
2019-04-03T20:25:57.731Z,98388.92
2019-04-03T20:28:31.730Z,98391.56
2019-04-03T20:31:06.155Z,98399.63
2019-04-03T20:33:42.076Z,98403.45
2019-04-03T20:36:16.729Z,98405.52
2019-04-03T20:38:50.366Z,98393.34
2019-04-03T20:41:23.260Z,98397.98
2019-04-03T20:43:55.811Z,98396.83
2019-04-03T20:46:28.441Z,98394.50
2019-04-03T20:49:03.166Z,98383.86
2019-04-03T20:51:36.294Z,98381.55
2019-04-03T20:54:11.770Z,98387.00
2019-04-03T20:56:56.824Z,98380.04
2019-04-03T20:59:20.771Z,98371.13
2019-04-03T21:01:54.602Z,98378.97
2019-04-03T21:04:27.687Z,98392.66
2019-04-03T21:07:00.863Z,98391.77
2019-04-03T21:09:34.359Z,98398.86
2019-04-03T21:12:07.652Z,98393.24
2019-04-03T21:14:41.524Z,98405.19
2019-04-03T21:17:18.504Z,98403.62
2019-04-03T21:19:52.236Z,98401.15
2019-04-03T21:22:26.138Z,98402.13
2019-04-03T21:24:58.971Z,98400.96
2019-04-03T21:27:31.900Z,98400.59
2019-04-03T21:30:05.447Z,98398.86
2019-04-03T21:32:38.113Z,98394.22
2019-04-03T21:35:10.883Z,98386.72
2019-04-03T21:37:44.107Z,98388.06
2019-04-03T21:40:16.743Z,98387.47
2019-04-03T21:42:50.289Z,98382.86
2019-04-03T21:45:23.727Z,98388.62
2019-04-03T21:47:57.200Z,98377.62
2019-04-03T21:50:30.898Z,98371.88
2019-04-03T21:53:03.595Z,98368.96
2019-04-03T21:55:37.037Z,98364.91
2019-04-03T21:58:09.636Z,98370.41
2019-04-03T22:01:16.551Z,98366.73
2019-04-03T22:03:51.668Z,98373.11
2019-04-03T22:06:27.539Z,98347.81
2019-04-03T22:09:01.225Z,98333.76
2019-04-03T22:11:39.323Z,98337.27
2019-04-03T22:14:12.675Z,98333.95
2019-04-03T22:16:45.360Z,98312.86
2019-04-03T22:19:18.880Z,98301.53
2019-04-03T22:21:52.236Z,98305.77
2019-04-03T22:24:25.481Z,98329.33
2019-04-03T22:26:58.777Z,98350.55
2019-04-03T22:29:31.682Z,98354.72
2019-04-03T22:32:05.556Z,98362.63
2019-04-03T22:34:39.601Z,98369.02
2019-04-03T22:37:13.013Z,98358.98
2019-04-03T22:39:46.044Z,98350.45
2019-04-03T22:42:21.233Z,98356.41
2019-04-03T22:44:54.627Z,98371.81
2019-04-03T22:47:30.142Z,98380.69
2019-04-03T22:50:05.619Z,98387.66
2019-04-03T22:52:39.649Z,98404.00
2019-04-03T22:55:12.998Z,98402.80
2019-04-03T22:57:50.353Z,98387.03
2019-04-03T23:00:23.891Z,98376.27
2019-04-03T23:02:58.569Z,98382.27
2019-04-03T23:05:31.537Z,98386.42
2019-04-03T23:08:04.288Z,98367.29
2019-04-03T23:10:36.901Z,98355.93
2019-04-03T23:13:09.733Z,98374.25
2019-04-03T23:15:43.177Z,98367.47
2019-04-03T23:18:16.985Z,98356.05
2019-04-03T23:20:53.355Z,98339.75
2019-04-03T23:23:27.575Z,98326.51
2019-04-03T23:26:02.099Z,98338.61
2019-04-03T23:28:35.155Z,98320.89
2019-04-03T23:31:08.931Z,98326.41
2019-04-03T23:33:41.843Z,98341.22
2019-04-03T23:36:15.483Z,98348.22
2019-04-03T23:38:49.063Z,98331.87
2019-04-03T23:41:22.096Z,98331.53
2019-04-03T23:43:54.824Z,98354.99
2019-04-03T23:46:29.051Z,98348.38
2019-04-03T23:49:02.547Z,98338.52
2019-04-03T23:51:35.853Z,98341.81
2019-04-03T23:54:08.437Z,98340.66
2019-04-03T23:56:41.978Z,98349.91
2019-04-03T23:59:14.962Z,98355.30
